Time;durP1;ratioP1;P1;durP2;ratioP2;P2;SDS_P1;SDS_P2;PMS_P1;PMS_P2;Temp;Humidity;BMP_temperature;BMP_pressure;BME280_temperature;BME280_humidity;BME280_pressure;Samples;Min_cycle;Max_cycle;Signal;HPM_P1;HPM_P2
2023/07/14 03:01:43;;;;;;;17.70;16.70;;;14.60;99.90;;;;;;5326679;23;20297;-70
2023/07/14 03:04:09;;;;;;;12.13;11.40;;;14.60;99.90;;;;;;4948805;29;20561;-71
2023/07/14 03:06:35;;;;;;;11.27;10.47;;;14.60;99.90;;;;;;4953360;29;20189;-70
2023/07/14 03:09:01;;;;;;;10.70;10.03;;;14.50;99.90;;;;;;4953750;29;20669;-69
2023/07/14 03:11:28;;;;;;;21.70;20.63;;;14.50;99.90;;;;;;4943552;29;20297;-69
2023/07/14 03:13:53;;;;;;;13.73;12.63;;;14.50;99.90;;;;;;4934242;29;20627;-69
2023/07/14 03:16:20;;;;;;;11.17;10.33;;;14.50;99.90;;;;;;4934578;29;20202;-69
2023/07/14 03:18:45;;;;;;;10.47;9.90;;;14.50;99.90;;;;;;4934414;29;20786;-70
2023/07/14 03:21:11;;;;;;;9.23;8.57;;;14.50;99.90;;;;;;4934455;29;20219;-69
2023/07/14 03:23:37;;;;;;;7.07;6.57;;;14.50;99.90;;;;;;4934154;29;20210;-69
2023/07/14 03:26:06;;;;;;;7.87;7.37;;;14.50;99.90;;;;;;4926237;29;20311;-70
2023/07/14 03:28:32;;;;;;;6.67;6.17;;;14.50;99.90;;;;;;4932124;29;20318;-70
2023/07/14 03:30:59;;;;;;;6.33;5.80;;;14.50;99.90;;;;;;4916725;29;20694;-70
2023/07/14 03:33:24;;;;;;;6.13;5.83;;;14.40;99.90;;;;;;4916600;29;20190;-70
2023/07/14 03:35:50;;;;;;;7.13;6.50;;;14.40;99.90;;;;;;4934090;29;20190;-70
2023/07/14 03:38:16;;;;;;;7.70;6.97;;;14.40;99.90;;;;;;4933896;29;20652;-70
2023/07/14 03:40:42;;;;;;;7.33;6.00;;;14.40;99.90;;;;;;4933609;29;20226;-70
2023/07/14 03:43:08;;;;;;;9.43;5.73;;;14.40;99.90;;;;;;4934041;29;20789;-70
2023/07/14 03:45:34;;;;;;;7.53;6.67;;;14.40;99.90;;;;;;4929401;29;20620;-70
2023/07/14 03:48:03;;;;;;;7.50;6.60;;;14.30;99.90;;;;;;4933613;29;20289;-70
2023/07/14 03:50:29;;;;;;;7.00;6.27;;;14.30;99.90;;;;;;4933868;29;20218;-71
2023/07/14 03:52:55;;;;;;;6.63;6.17;;;14.30;99.90;;;;;;4934034;29;20242;-70
2023/07/14 03:55:21;;;;;;;6.40;5.90;;;14.30;99.90;;;;;;4916400;29;20193;-69
2023/07/14 03:57:47;;;;;;;6.97;6.10;;;14.30;99.90;;;;;;4933459;29;20190;-69
2023/07/14 04:00:17;;;;;;;6.80;6.40;;;14.30;99.90;;;;;;4933536;29;20193;-68
2023/07/14 04:02:46;;;;;;;7.13;6.33;;;14.40;99.90;;;;;;4933451;29;20554;-70
2023/07/14 04:05:13;;;;;;;10.80;10.00;;;14.40;99.90;;;;;;4933281;29;20305;-70
2023/07/14 04:07:41;;;;;;;8.57;7.87;;;14.30;99.90;;;;;;4933091;29;20201;-70
2023/07/14 04:10:08;;;;;;;6.83;6.27;;;14.30;99.90;;;;;;4933251;29;20200;-71
2023/07/14 04:12:34;;;;;;;7.33;6.73;;;14.30;99.90;;;;;;4933613;29;20214;-71
2023/07/14 04:15:00;;;;;;;15.83;14.93;;;14.50;99.90;;;;;;4932992;29;20186;-71
2023/07/14 04:17:27;;;;;;;17.13;15.93;;;14.50;99.90;;;;;;4932754;29;20190;-71
2023/07/14 04:19:53;;;;;;;21.03;19.87;;;14.60;99.90;;;;;;4933392;29;20197;-70
2023/07/14 04:22:19;;;;;;;24.10;22.40;;;14.80;99.90;;;;;;4933334;29;20210;-69
2023/07/14 04:24:45;;;;;;;46.03;43.53;;;15.00;99.90;;;;;;4932901;29;20595;-71
2023/07/14 04:27:12;;;;;;;38.60;36.30;;;15.20;99.90;;;;;;4932569;29;20273;-71
2023/07/14 04:29:39;;;;;;;7.53;6.93;;;15.30;99.90;;;;;;4933368;29;20671;-70
2023/07/14 04:32:06;;;;;;;16.17;14.70;;;15.40;99.90;;;;;;4932667;29;20297;-70
2023/07/14 04:34:33;;;;;;;24.33;23.00;;;15.60;99.90;;;;;;4933049;29;20191;-71
2023/07/14 04:36:59;;;;;;;24.27;22.70;;;15.80;99.90;;;;;;4932949;29;20198;-70
2023/07/14 04:39:25;;;;;;;13.87;13.07;;;15.90;99.90;;;;;;4933318;29;20204;-70
2023/07/14 04:41:52;;;;;;;26.30;25.00;;;16.00;99.90;;;;;;4932221;29;20214;-71
2023/07/14 04:44:18;;;;;;;21.13;19.67;;;16.00;99.90;;;;;;4933437;29;20709;-71
2023/07/14 04:46:45;;;;;;;7.20;6.60;;;16.10;99.90;;;;;;4926671;29;20202;-70
2023/07/14 04:49:12;;;;;;;21.57;20.27;;;16.20;99.90;;;;;;4915994;29;20184;-71
2023/07/14 04:51:38;;;;;;;49.00;46.10;;;16.30;99.90;;;;;;4931199;29;20241;-70
2023/07/14 04:54:05;;;;;;;137.07;129.60;;;16.40;99.90;;;;;;4933075;29;20190;-70
2023/07/14 04:56:33;;;;;;;181.30;171.83;;;16.50;99.90;;;;;;4933211;29;20194;-71
2023/07/14 04:58:59;;;;;;;158.40;150.50;;;16.50;99.90;;;;;;4932696;29;20289;-71
2023/07/14 05:01:27;;;;;;;143.17;135.53;;;16.50;99.90;;;;;;4931534;29;20790;-70
2023/07/14 05:03:53;;;;;;;150.90;143.20;;;16.50;99.90;;;;;;4932492;29;20237;-70
2023/07/14 05:06:20;;;;;;;173.90;165.00;;;16.60;99.90;;;;;;4932989;29;20249;-70
2023/07/14 05:08:46;;;;;;;178.90;169.53;;;16.70;99.90;;;;;;4932693;29;20636;-71
2023/07/14 05:11:11;;;;;;;107.67;101.67;;;17.00;99.90;;;;;;4932431;29;20214;-70
2023/07/14 05:13:37;;;;;;;36.37;34.50;;;17.30;99.90;;;;;;4931765;29;20182;-70
2023/07/14 05:16:03;;;;;;;42.97;40.67;;;17.70;99.90;;;;;;4931616;29;20191;-70
2023/07/14 05:18:29;;;;;;;53.97;51.07;;;18.20;99.90;;;;;;4932080;29;20191;-70
2023/07/14 05:21:00;;;;;;;18.55;17.38;;;18.70;99.90;;;;;;4916072;29;20698;-70
2023/07/14 05:23:27;;;;;;;10.45;9.75;;;18.80;99.90;;;;;;4933627;29;20253;-71
2023/07/14 05:25:54;;;;;;;13.43;12.50;;;19.00;99.90;;;;;;4932464;29;20638;-70
2023/07/14 05:28:21;;;;;;;13.85;12.82;;;19.20;99.90;;;;;;4932671;29;20342;-70
2023/07/14 05:30:47;;;;;;;13.18;12.27;;;19.30;99.90;;;;;;4933367;29;20210;-70
2023/07/14 05:33:16;;;;;;;14.15;13.35;;;19.40;99.90;;;;;;4933243;29;20197;-70
2023/07/14 05:35:43;;;;;;;13.68;12.75;;;19.60;99.90;;;;;;4932876;29;20306;-70
2023/07/14 05:38:09;;;;;;;13.10;11.98;;;19.70;99.90;;;;;;4932627;29;20205;-70
2023/07/14 05:40:34;;;;;;;10.13;9.23;;;19.80;99.90;;;;;;4932907;29;20206;-71
2023/07/14 05:43:00;;;;;;;29.25;27.67;;;19.90;99.90;;;;;;4927411;29;20666;-71
2023/07/14 05:45:26;;;;;;;88.05;83.18;;;20.20;99.90;;;;;;4935688;29;20779;-70
2023/07/14 05:47:52;;;;;;;140.13;133.32;;;20.40;99.90;;;;;;4919618;29;20198;-70
2023/07/14 05:50:19;;;;;;;149.35;142.00;;;20.70;99.90;;;;;;4936371;29;20182;-71
2023/07/14 05:52:47;;;;;;;125.50;119.40;;;20.90;99.90;;;;;;4936567;29;20190;-71
2023/07/14 05:55:14;;;;;;;92.03;87.50;;;21.00;99.90;;;;;;4935948;29;20542;-70
2023/07/14 05:57:40;;;;;;;78.32;74.38;;;21.10;99.90;;;;;;4935906;29;20197;-70
2023/07/14 06:00:13;;;;;;;64.97;61.70;;;21.00;99.90;;;;;;4936379;29;20266;-70
2023/07/14 06:02:41;;;;;;;66.57;63.33;;;20.90;99.90;;;;;;4936106;29;20201;-71
2023/07/14 06:05:08;;;;;;;39.85;37.83;;;21.10;99.90;;;;;;4936008;29;20241;-71
2023/07/14 06:07:34;;;;;;;13.68;12.70;;;21.60;99.90;;;;;;4935987;29;20643;-71
2023/07/14 06:10:00;;;;;;;5.93;5.07;;;22.00;99.90;;;;;;4936645;29;20588;-70
2023/07/14 06:12:26;;;;;;;5.55;5.25;;;22.50;99.90;;;;;;4936046;29;20223;-69
2023/07/14 06:14:51;;;;;;;9.23;8.52;;;22.70;99.90;;;;;;4927968;29;20234;-69
2023/07/14 06:17:17;;;;;;;9.77;8.70;;;22.80;99.90;;;;;;4933469;29;20194;-69
2023/07/14 06:19:43;;;;;;;9.43;8.80;;;23.10;99.90;;;;;;4918597;29;20236;-70
2023/07/14 06:22:09;;;;;;;6.03;5.25;;;23.40;99.90;;;;;;4918048;29;20226;-70
2023/07/14 06:24:35;;;;;;;5.85;5.25;;;23.20;99.90;;;;;;4933672;29;20206;-69
2023/07/14 06:27:02;;;;;;;5.35;4.93;;;23.10;99.90;;;;;;4935273;29;20592;-70
2023/07/14 06:29:28;;;;;;;5.70;4.43;;;22.70;99.90;;;;;;4917926;29;20193;-70
2023/07/14 06:31:54;;;;;;;4.97;3.83;;;22.40;99.90;;;;;;4934977;29;20584;-69
2023/07/14 06:34:20;;;;;;;11.70;10.68;;;22.10;99.90;;;;;;4934450;29;20197;-68
2023/07/14 06:36:45;;;;;;;9.77;9.25;;;21.70;99.90;;;;;;4927524;29;20572;-70
2023/07/14 06:39:12;;;;;;;8.70;8.10;;;21.30;99.90;;;;;;4949196;29;20377;-68
2023/07/14 06:41:38;;;;;;;7.78;6.82;;;21.00;99.90;;;;;;4943580;29;20222;-69
2023/07/14 06:44:04;;;;;;;7.63;7.13;;;20.90;99.90;;;;;;4935069;29;20253;-69
2023/07/14 06:46:30;;;;;;;6.53;5.78;;;21.20;99.90;;;;;;4917941;29;20245;-69
2023/07/14 06:48:57;;;;;;;9.30;8.60;;;22.20;99.90;;;;;;4934978;29;20190;-71
2023/07/14 06:51:24;;;;;;;7.28;6.88;;;23.40;99.90;;;;;;4918193;29;20213;-70
2023/07/14 06:53:50;;;;;;;9.88;9.00;;;24.40;99.90;;;;;;4934638;29;20194;-70
2023/07/14 06:56:16;;;;;;;5.32;4.93;;;25.00;99.90;;;;;;4935046;29;20186;-70
2023/07/14 06:58:43;;;;;;;7.55;6.82;;;25.40;99.90;;;;;;4934675;29;20190;-69
2023/07/14 07:01:09;;;;;;;6.60;6.20;;;25.90;99.20;;;;;;4934726;29;20305;-68
2023/07/14 07:03:35;;;;;;;9.68;8.88;;;26.20;97.90;;;;;;4934799;29;20186;-70
2023/07/14 07:06:01;;;;;;;15.95;14.93;;;26.20;96.00;;;;;;4934861;29;20253;-70
2023/07/14 07:08:27;;;;;;;17.13;16.25;;;26.30;95.30;;;;;;4934415;29;20892;-69
2023/07/14 07:10:53;;;;;;;9.27;8.60;;;26.50;94.60;;;;;;4934928;29;20233;-69
2023/07/14 07:13:19;;;;;;;11.10;8.80;;;26.60;94.30;;;;;;4917830;29;20186;-69
2023/07/14 07:15:45;;;;;;;6.88;6.25;;;26.80;93.80;;;;;;4934385;29;20209;-70
2023/07/14 07:18:10;;;;;;;5.30;4.93;;;27.40;93.50;;;;;;4917664;29;20194;-70
2023/07/14 07:20:40;;;;;;;4.82;4.10;;;27.80;92.00;;;;;;4934693;29;20221;-70
2023/07/14 07:23:06;;;;;;;4.18;3.95;;;28.10;91.00;;;;;;4934785;29;20713;-70
2023/07/14 07:25:32;;;;;;;5.15;4.28;;;28.40;90.70;;;;;;4917354;29;20293;-70
2023/07/14 07:27:58;;;;;;;4.47;4.07;;;28.40;88.40;;;;;;4934551;29;20698;-72
2023/07/14 07:30:25;;;;;;;3.92;3.63;;;28.20;88.80;;;;;;4934565;29;20187;-70
2023/07/14 07:32:51;;;;;;;4.97;4.53;;;28.10;87.80;;;;;;4934934;29;20310;-71
2023/07/14 07:35:17;;;;;;;6.50;5.97;;;28.50;87.30;;;;;;4934083;29;20201;-69
2023/07/14 07:37:43;;;;;;;4.00;3.72;;;28.30;84.90;;;;;;4934060;29;20650;-70
2023/07/14 07:40:09;;;;;;;4.85;4.43;;;28.00;86.00;;;;;;4934606;29;20194;-70
2023/07/14 07:42:35;;;;;;;4.55;4.18;;;27.70;87.20;;;;;;4934458;29;20221;-71
2023/07/14 07:45:02;;;;;;;5.18;4.50;;;27.80;86.60;;;;;;4934059;29;20210;-72
2023/07/14 07:47:28;;;;;;;12.18;4.30;;;28.00;85.80;;;;;;4933970;29;20281;-70
2023/07/14 07:49:54;;;;;;;4.68;4.38;;;27.70;86.90;;;;;;4917256;29;20218;-71
2023/07/14 07:52:20;;;;;;;5.25;4.72;;;27.60;85.10;;;;;;4934322;29;20809;-71
2023/07/14 07:54:46;;;;;;;10.73;10.13;;;28.20;85.30;;;;;;4934037;29;20182;-71
2023/07/14 07:57:12;;;;;;;6.95;6.45;;;28.80;82.70;;;;;;4915514;29;20205;-70
2023/07/14 07:59:38;;;;;;;5.93;5.53;;;29.00;80.10;;;;;;4933073;29;20673;-71
2023/07/14 08:02:06;;;;;;;4.07;3.80;;;29.30;79.40;;;;;;4933617;29;20230;-70
2023/07/14 08:04:33;;;;;;;5.57;5.13;;;29.10;79.10;;;;;;4933655;29;20206;-71
2023/07/14 08:06:59;;;;;;;5.28;4.18;;;29.20;76.80;;;;;;4916170;29;20571;-71
2023/07/14 08:09:25;;;;;;;4.95;4.50;;;28.80;77.90;;;;;;4933827;29;20220;-70
2023/07/14 08:11:57;;;;;;;8.32;7.72;;;28.90;78.20;;;;;;4933639;29;20637;-70
2023/07/14 08:14:23;;;;;;;10.07;9.52;;;29.20;75.20;;;;;;4933827;29;20725;-70
2023/07/14 08:16:49;;;;;;;14.80;13.82;;;29.30;74.30;;;;;;4938767;29;20199;-69
2023/07/14 08:19:15;;;;;;;13.85;12.90;;;29.20;74.30;;;;;;4956335;29;20209;-70
2023/07/14 08:21:41;;;;;;;6.30;5.90;;;29.10;73.70;;;;;;4936928;29;20296;-70
2023/07/14 08:24:09;;;;;;;4.28;3.92;;;28.60;74.90;;;;;;4926919;29;20217;-70
2023/07/14 08:26:39;;;;;;;14.95;14.13;;;28.80;76.80;;;;;;4932541;29;20210;-70
2023/07/14 08:29:05;;;;;;;17.38;16.15;;;29.10;71.90;;;;;;4933165;29;20191;-70
2023/07/14 08:31:31;;;;;;;23.83;22.45;;;28.80;70.90;;;;;;4931378;29;20652;-70
2023/07/14 08:33:57;;;;;;;24.85;23.48;;;28.90;68.30;;;;;;4933213;29;20265;-70
2023/07/14 08:36:24;;;;;;;24.63;23.33;;;29.10;67.80;;;;;;4933196;29;20186;-70
2023/07/14 08:38:50;;;;;;;22.38;21.13;;;29.30;66.80;;;;;;4932919;29;20281;-73
2023/07/14 08:41:35;;;;;;;24.92;23.58;;;29.10;66.50;;;;;;4932918;29;20301;-72
2023/07/14 08:44:08;;;;;;;23.13;21.45;;;29.00;66.70;;;;;;4927406;29;20786;-72
2023/07/14 08:47:15;;;;;;;21.00;19.95;;;28.80;66.70;;;;;;4933062;29;20662;-72
2023/07/14 08:49:44;;;;;;;20.38;19.40;;;28.80;66.00;;;;;;4932620;29;20297;-72
2023/07/14 08:52:34;;;;;;;19.10;18.10;;;29.10;66.20;;;;;;4926314;29;20714;-71
2023/07/14 08:55:11;;;;;;;22.27;21.15;;;29.10;65.00;;;;;;4935014;29;20190;-72
2023/07/14 08:57:56;;;;;;;18.20;17.10;;;28.60;64.80;;;;;;4945657;29;20567;-72
2023/07/14 09:00:39;;;;;;;17.98;16.75;;;28.80;66.10;;;;;;4932065;29;20737;-72
2023/07/14 09:03:41;;;;;;;17.13;16.23;;;29.40;64.90;;;;;;4933018;29;20562;-72
2023/07/14 09:06:28;;;;;;;14.15;13.27;;;30.30;61.90;;;;;;4933112;29;20265;-72
2023/07/14 09:08:54;;;;;;;21.48;20.08;;;30.20;62.20;;;;;;4932566;29;20194;-72
2023/07/14 09:12:02;;;;;;;23.77;22.50;;;30.20;60.70;;;;;;4932726;29;20216;-71
2023/07/14 09:14:51;;;;;;;18.40;16.92;;;30.30;62.00;;;;;;4904540;29;20202;-72
2023/07/14 09:17:36;;;;;;;15.30;14.40;;;29.80;62.40;;;;;;4969928;23;20237;-71
2023/07/14 09:20:32;;;;;;;14.50;13.63;;;29.50;62.10;;;;;;4949966;29;20196;-71
2023/07/14 09:23:13;;;;;;;17.10;16.10;;;29.70;62.00;;;;;;4950046;29;20186;-71
2023/07/14 09:26:05;;;;;;;22.88;21.33;;;30.10;61.00;;;;;;4954640;29;20709;-72
2023/07/14 09:28:40;;;;;;;24.02;22.58;;;30.20;60.20;;;;;;4931868;29;20201;-71
2023/07/14 09:31:16;;;;;;;19.83;18.67;;;29.90;60.00;;;;;;4955113;29;20196;-71
2023/07/14 09:33:50;;;;;;;17.90;16.85;;;29.40;61.60;;;;;;4946322;29;20233;-71
2023/07/14 09:36:21;;;;;;;18.33;17.27;;;29.40;60.90;;;;;;4950995;29;20233;-70
2023/07/14 09:38:52;;;;;;;14.70;13.68;;;29.40;60.10;;;;;;4904902;29;20600;-71
2023/07/14 09:41:20;;;;;;;17.52;16.50;;;29.60;60.00;;;;;;4954963;29;20549;-71
2023/07/14 09:43:46;;;;;;;19.60;18.48;;;29.60;59.50;;;;;;4954341;29;20654;-72
2023/07/14 09:46:18;;;;;;;15.18;14.32;;;29.30;59.80;;;;;;4936761;29;20214;-71
2023/07/14 09:48:52;;;;;;;25.80;24.40;;;29.60;60.30;;;;;;4954780;29;20236;-71
2023/07/14 09:51:24;;;;;;;22.20;20.73;;;29.60;59.00;;;;;;4954471;29;20272;-71
2023/07/14 09:54:02;;;;;;;27.15;25.55;;;29.70;59.40;;;;;;4951405;29;20178;-71
2023/07/14 09:56:32;;;;;;;32.05;30.45;;;29.90;57.80;;;;;;4935964;29;20552;-71
2023/07/14 09:59:04;;;;;;;27.67;26.17;;;29.90;58.40;;;;;;4937465;29;20296;-73
2023/07/14 10:01:31;;;;;;;13.10;12.48;;;30.40;58.10;;;;;;4954277;29;20221;-70
2023/07/14 10:04:07;;;;;;;10.27;9.25;;;30.90;57.50;;;;;;4955315;29;20233;-71
2023/07/14 10:06:33;;;;;;;14.40;13.48;;;30.90;56.60;;;;;;4955197;29;20220;-71
2023/07/14 10:09:08;;;;;;;11.65;10.95;;;31.00;58.20;;;;;;4954902;29;20182;-71
2023/07/14 10:11:49;;;;;;;7.15;6.55;;;31.00;57.00;;;;;;4954419;29;20217;-71
2023/07/14 10:14:49;;;;;;;4.22;4.03;;;30.90;57.10;;;;;;4934966;29;20197;-70
2023/07/14 10:17:27;;;;;;;5.95;5.65;;;30.70;56.90;;;;;;4939157;29;20241;-71
2023/07/14 10:19:56;;;;;;;10.35;9.85;;;30.30;57.00;;;;;;4947707;29;20198;-71
2023/07/14 10:22:31;;;;;;;24.63;22.98;;;30.10;58.20;;;;;;4937240;29;20662;-72
2023/07/14 10:25:01;;;;;;;11.38;10.57;;;30.20;58.70;;;;;;4938578;29;20308;-70
2023/07/14 10:27:30;;;;;;;24.17;22.88;;;29.90;57.70;;;;;;4953832;29;20244;-70
2023/07/14 10:30:05;;;;;;;27.38;25.88;;;29.40;58.40;;;;;;4937371;29;20197;-71
2023/07/14 10:32:41;;;;;;;26.98;25.55;;;29.40;59.10;;;;;;4953505;29;20209;-71
2023/07/14 10:35:42;;;;;;;27.90;26.17;;;29.50;58.10;;;;;;4954886;29;20332;-70
2023/07/14 10:38:28;;;;;;;24.02;22.90;;;29.80;58.40;;;;;;4895239;29;20199;-71
2023/07/14 10:41:03;;;;;;;28.48;26.98;;;29.80;57.40;;;;;;4950467;29;20201;-70
2023/07/14 10:43:34;;;;;;;29.05;27.48;;;29.70;58.40;;;;;;4953848;29;20204;-70
2023/07/14 10:46:06;;;;;;;30.83;29.13;;;29.90;57.60;;;;;;4954518;29;20248;-70
2023/07/14 10:48:38;;;;;;;30.38;28.88;;;29.80;58.00;;;;;;4954089;29;20213;-70
2023/07/14 10:51:10;;;;;;;25.38;23.90;;;29.90;58.00;;;;;;4933274;29;20180;-70
2023/07/14 10:53:48;;;;;;;17.00;16.10;;;30.10;57.00;;;;;;4945738;28;20200;-70
2023/07/14 10:56:40;;;;;;;16.27;15.48;;;30.20;57.00;;;;;;4953811;28;20552;-70
2023/07/14 10:59:35;;;;;;;25.63;24.02;;;29.60;57.40;;;;;;4936676;29;20646;-71
2023/07/14 11:02:09;;;;;;;19.60;18.58;;;29.60;58.60;;;;;;4951966;29;20197;-70
2023/07/14 11:04:43;;;;;;;20.00;18.92;;;29.50;57.40;;;;;;4952218;29;20693;-70
2023/07/14 11:07:21;;;;;;;23.00;21.85;;;29.90;57.80;;;;;;4953402;29;20201;-70
2023/07/14 11:09:47;;;;;;;10.48;9.90;;;30.30;56.90;;;;;;4929019;29;20379;-70
2023/07/14 11:12:30;;;;;;;5.93;5.45;;;30.30;55.60;;;;;;4952764;29;20178;-70
2023/07/14 11:15:11;;;;;;;5.22;4.75;;;30.50;54.90;;;;;;4928161;29;20198;-70
2023/07/14 11:17:59;;;;;;;4.63;4.35;;;30.80;54.80;;;;;;4944411;29;20312;-69
2023/07/14 11:20:28;;;;;;;4.68;4.43;;;31.10;55.10;;;;;;4953208;29;20236;-70
2023/07/14 11:23:27;;;;;;;5.22;4.22;;;31.20;55.30;;;;;;4953063;29;20666;-70
2023/07/14 11:26:04;;;;;;;4.22;3.95;;;31.40;55.80;;;;;;4939505;28;20710;-70
2023/07/14 11:28:40;;;;;;;5.97;5.53;;;31.50;54.80;;;;;;4953153;29;20310;-71
2023/07/14 11:31:21;;;;;;;5.85;5.35;;;31.60;54.10;;;;;;4953729;29;20193;-69
2023/07/14 11:33:51;;;;;;;3.63;3.40;;;31.50;54.50;;;;;;4952510;29;20854;-69
2023/07/14 11:36:50;;;;;;;4.38;4.07;;;31.30;54.80;;;;;;4935731;29;20705;-69
2023/07/14 11:39:51;;;;;;;4.75;4.35;;;30.70;54.60;;;;;;4953154;29;20197;-69
2023/07/14 11:42:21;;;;;;;5.55;5.20;;;30.30;55.60;;;;;;4952378;29;20197;-69
2023/07/14 11:44:48;;;;;;;7.00;5.30;;;30.00;57.60;;;;;;4945949;29;20212;-69
2023/07/14 11:47:21;;;;;;;4.88;4.68;;;29.90;56.70;;;;;;4953190;28;20296;-70
2023/07/14 11:49:52;;;;;;;8.52;7.90;;;30.10;55.90;;;;;;4952772;29;20285;-69
2023/07/14 11:52:27;;;;;;;5.15;4.85;;;30.30;56.80;;;;;;4950380;29;20269;-70
2023/07/14 11:54:53;;;;;;;5.80;5.35;;;30.70;54.50;;;;;;4948477;29;20225;-69
2023/07/14 11:57:20;;;;;;;4.55;4.25;;;31.00;55.50;;;;;;4953104;29;20729;-70
2023/07/14 12:00:15;;;;;;;9.02;8.45;;;31.60;53.80;;;;;;4935766;29;20681;-70
2023/07/14 12:02:42;;;;;;;16.48;15.50;;;32.00;52.20;;;;;;4950828;29;20585;-71
2023/07/14 12:05:14;;;;;;;38.25;36.28;;;32.10;51.60;;;;;;4950619;29;20225;-73
2023/07/14 12:08:05;;;;;;;36.92;35.13;;;31.80;51.30;;;;;;4934556;29;20196;-69
2023/07/14 12:10:37;;;;;;;30.40;28.92;;;31.90;51.30;;;;;;4951597;29;20190;-69
2023/07/14 12:13:19;;;;;;;24.42;23.17;;;31.80;52.50;;;;;;4950060;29;20192;-69
2023/07/14 12:15:56;;;;;;;11.75;11.02;;;31.50;52.30;;;;;;4950870;29;20213;-69
2023/07/14 12:19:01;;;;;;;45.30;43.15;;;31.80;53.30;;;;;;4934193;29;20609;-70
2023/07/14 12:21:44;;;;;;;75.40;71.70;;;32.60;51.20;;;;;;4951591;29;20259;-69
2023/07/14 12:24:17;;;;;;;71.93;68.50;;;32.90;50.20;;;;;;4950607;29;20217;-68
2023/07/14 12:26:53;;;;;;;23.85;22.55;;;32.80;49.90;;;;;;4950462;29;20213;-68
2023/07/14 12:29:21;;;;;;;7.13;6.82;;;33.90;49.40;;;;;;4948883;28;20193;-69
2023/07/14 12:31:55;;;;;;;5.30;4.78;;;34.60;49.00;;;;;;4951229;29;20603;-78
2023/07/14 12:34:24;;;;;;;4.00;3.22;;;35.60;47.50;;;;;;4949403;29;20213;-78
2023/07/14 12:36:50;;;;;;;4.90;3.42;;;35.80;46.30;;;;;;4943452;29;20206;-76
2023/07/14 12:39:16;;;;;;;5.88;5.30;;;36.00;45.10;;;;;;4941662;29;20613;-77
2023/07/14 12:41:53;;;;;;;6.43;5.80;;;36.30;45.30;;;;;;4952951;29;20217;-77
2023/07/14 12:44:23;;;;;;;7.57;7.05;;;36.80;45.60;;;;;;4952215;29;20254;-75
2023/07/14 12:46:49;;;;;;;9.90;9.45;;;37.20;45.40;;;;;;4934694;29;20566;-80
2023/07/14 12:49:26;;;;;;;18.13;17.05;;;37.70;44.30;;;;;;4947146;29;20543;-78
2023/07/14 12:51:52;;;;;;;21.70;20.50;;;38.00;43.30;;;;;;4951566;28;20185;-78
2023/07/14 12:54:25;;;;;;;21.40;20.40;;;37.30;43.10;;;;;;4956160;29;20181;-76
2023/07/14 12:56:54;;;;;;;21.95;20.83;;;36.40;42.80;;;;;;4947384;29;20241;-78
2023/07/14 12:59:21;;;;;;;15.73;14.95;;;35.80;43.60;;;;;;4955028;29;20189;-77
2023/07/14 13:01:49;;;;;;;29.25;27.60;;;36.10;44.10;;;;;;4939278;29;20790;-77
2023/07/14 13:04:17;;;;;;;12.18;11.18;;;36.20;43.90;;;;;;4956188;29;20633;-77
2023/07/14 13:06:44;;;;;;;23.48;21.98;;;36.20;42.70;;;;;;4956160;28;20216;-78
2023/07/14 13:09:24;;;;;;;22.42;21.30;;;37.00;42.30;;;;;;4938769;29;20550;-77
2023/07/14 13:11:51;;;;;;;18.40;17.02;;;37.40;41.80;;;;;;4956444;29;20280;-77
2023/07/14 13:14:40;;;;;;;15.98;14.82;;;37.50;40.90;;;;;;4956373;29;20190;-77
2023/07/14 13:17:16;;;;;;;20.90;19.52;;;37.20;41.70;;;;;;4945652;29;20307;-78
2023/07/14 13:19:48;;;;;;;16.45;15.45;;;36.70;40.90;;;;;;4962949;29;20629;-76
2023/07/14 13:22:25;;;;;;;23.00;21.55;;;36.10;42.20;;;;;;4965152;29;20190;-75
2023/07/14 13:25:02;;;;;;;21.77;20.58;;;36.80;41.90;;;;;;4943874;29;20686;-77
2023/07/14 13:27:28;;;;;;;26.20;24.58;;;37.00;41.20;;;;;;4955955;28;20205;-78
2023/07/14 13:30:00;;;;;;;17.15;15.98;;;37.10;42.10;;;;;;4955837;29;20190;-77
2023/07/14 13:32:27;;;;;;;17.05;15.90;;;37.20;42.20;;;;;;4939221;29;20200;-77
2023/07/14 13:34:57;;;;;;;21.48;20.45;;;37.50;41.70;;;;;;4939166;29;20674;-77
2023/07/14 13:37:23;;;;;;;14.43;13.57;;;37.70;40.50;;;;;;4938822;29;20728;-78
2023/07/14 13:40:01;;;;;;;28.90;27.30;;;37.60;41.40;;;;;;4937687;29;20178;-77
2023/07/14 13:42:33;;;;;;;21.50;20.38;;;37.40;41.20;;;;;;4955068;29;20263;-78
2023/07/14 13:45:00;;;;;;;20.90;19.90;;;36.60;42.10;;;;;;4938842;29;20264;-78
2023/07/14 13:47:28;;;;;;;28.83;27.25;;;36.00;42.40;;;;;;4956182;28;20210;-78
2023/07/14 13:49:58;;;;;;;26.52;25.25;;;36.40;42.70;;;;;;4956488;29;20249;-77
2023/07/14 13:52:33;;;;;;;15.95;15.02;;;36.90;42.00;;;;;;4956151;29;20745;-77
2023/07/14 13:55:10;;;;;;;24.17;22.98;;;37.90;40.80;;;;;;4955504;29;20621;-77
2023/07/14 13:57:36;;;;;;;21.90;20.75;;;38.00;40.20;;;;;;4955098;28;20223;-77
2023/07/14 14:00:03;;;;;;;21.63;20.52;;;37.90;40.50;;;;;;4955556;29;20272;-77
2023/07/14 14:02:42;;;;;;;21.50;20.38;;;37.00;40.60;;;;;;4955326;29;20615;-77
2023/07/14 14:05:40;;;;;;;30.75;28.98;;;36.00;42.00;;;;;;4950372;28;20232;-78
2023/07/14 14:08:19;;;;;;;37.17;35.38;;;35.10;42.70;;;;;;4942728;29;20572;-78
2023/07/14 14:10:46;;;;;;;23.35;21.73;;;35.70;42.50;;;;;;4958182;29;20200;-77
2023/07/14 14:13:12;;;;;;;24.15;22.75;;;36.30;42.40;;;;;;4955601;29;20665;-76
2023/07/14 14:15:44;;;;;;;21.23;19.95;;;36.10;41.40;;;;;;4954801;28;20228;-77
2023/07/14 14:18:21;;;;;;;21.98;20.77;;;36.50;41.50;;;;;;4943566;29;20197;-77
2023/07/14 14:20:48;;;;;;;37.78;35.97;;;36.40;41.20;;;;;;4955365;29;20201;-77
2023/07/14 14:23:17;;;;;;;23.85;22.58;;;35.40;41.80;;;;;;4955553;29;20568;-78
2023/07/14 14:25:43;;;;;;;26.45;24.58;;;34.90;42.60;;;;;;4932663;29;20586;-77
2023/07/14 14:28:09;;;;;;;28.65;27.13;;;35.20;42.10;;;;;;4931260;29;20181;-78
2023/07/14 14:30:40;;;;;;;17.38;16.45;;;36.00;41.70;;;;;;4955124;29;20190;-78
2023/07/14 14:33:12;;;;;;;16.88;15.98;;;36.80;40.10;;;;;;4955155;29;20190;-77
2023/07/14 14:35:39;;;;;;;14.13;13.32;;;37.70;39.40;;;;;;4954223;28;20216;-78
2023/07/14 14:38:15;;;;;;;20.02;19.08;;;37.80;38.50;;;;;;4954656;29;20196;-78
2023/07/14 14:40:41;;;;;;;9.98;9.38;;;37.20;39.50;;;;;;4955036;29;20303;-79
2023/07/14 14:43:17;;;;;;;14.23;13.27;;;37.90;39.10;;;;;;4937876;29;20193;-78
2023/07/14 14:45:43;;;;;;;21.38;20.38;;;37.30;39.70;;;;;;4954025;28;20385;-78
2023/07/14 14:48:14;;;;;;;20.38;19.33;;;36.60;40.40;;;;;;4931867;29;20193;-78
2023/07/14 14:50:39;;;;;;;24.67;23.40;;;36.10;41.30;;;;;;4954527;29;20213;-78
2023/07/14 14:53:06;;;;;;;27.08;25.83;;;36.20;42.00;;;;;;4954557;29;20651;-78
2023/07/14 14:55:34;;;;;;;23.80;22.50;;;36.40;41.70;;;;;;4953762;28;20192;-78
2023/07/14 14:58:01;;;;;;;24.75;23.45;;;36.20;41.60;;;;;;4954209;29;20193;-78
2023/07/14 15:00:31;;;;;;;23.48;22.27;;;36.00;39.80;;;;;;4954533;29;20194;-78
2023/07/14 15:02:57;;;;;;;35.67;33.88;;;35.20;40.80;;;;;;4937302;29;20579;-77
2023/07/14 15:05:25;;;;;;;38.95;36.47;;;35.20;42.20;;;;;;4954466;28;20209;-78
2023/07/14 15:07:54;;;;;;;19.83;18.63;;;36.20;41.70;;;;;;4932290;29;20235;-78
2023/07/14 15:10:24;;;;;;;24.35;23.13;;;37.30;39.60;;;;;;4937220;29;20249;-78
2023/07/14 15:12:50;;;;;;;20.70;19.70;;;37.60;38.90;;;;;;4954136;29;20194;-79
2023/07/14 15:15:23;;;;;;;26.40;25.15;;;37.70;39.50;;;;;;4953204;28;20186;-78
2023/07/14 15:17:49;;;;;;;20.90;19.77;;;37.60;40.50;;;;;;4971925;23;20306;-70
2023/07/14 15:20:15;;;;;;;27.40;26.10;;;37.30;40.10;;;;;;4954007;29;20186;-71
2023/07/14 15:22:41;;;;;;;16.77;15.88;;;37.30;40.50;;;;;;4953715;29;20194;-72
2023/07/14 15:25:10;;;;;;;8.20;7.43;;;37.50;39.90;;;;;;4953333;29;20257;-71
2023/07/14 15:27:38;;;;;;;11.95;11.32;;;37.60;40.00;;;;;;4953284;29;20268;-71
2023/07/14 15:30:07;;;;;;;13.40;12.63;;;37.50;41.00;;;;;;4954283;29;20268;-72
2023/07/14 15:32:33;;;;;;;13.90;13.20;;;37.20;40.60;;;;;;4953715;29;20284;-72
2023/07/14 15:34:59;;;;;;;16.08;15.02;;;37.60;41.30;;;;;;4935932;29;20221;-72
2023/07/14 15:37:25;;;;;;;32.22;30.65;;;37.10;41.70;;;;;;4953232;29;20631;-70
2023/07/14 15:39:52;;;;;;;33.88;32.10;;;36.60;42.40;;;;;;4953853;29;20196;-72
2023/07/14 15:42:18;;;;;;;35.83;33.90;;;36.40;42.50;;;;;;4953976;29;20301;-70
2023/07/14 15:44:43;;;;;;;29.95;28.17;;;36.20;42.70;;;;;;4953623;29;20292;-70
2023/07/14 15:47:16;;;;;;;45.65;43.35;;;35.90;43.00;;;;;;4952398;29;20213;-70
2023/07/14 15:49:42;;;;;;;41.20;39.13;;;35.40;44.10;;;;;;4953575;29;20624;-71
2023/07/14 15:52:15;;;;;;;26.02;24.70;;;34.70;44.80;;;;;;4953709;29;20277;-71